• Join FlightAware (Why Join?)
  • Login
  • US Flag 
05:58PM EST


 

Airport Tracker/Info


-or-


 

Live Flight TrackerFlight Track Log ✈ AFR702 ✈ 06-May-2013 ✈ LFPG / CDG - DIAP / ABJ

Flight Track Log - Related Links

Times and Time Zones

All times are in EDT time to prevent confusion due to time zone crossing. See the AFR702 flight status page for this flight to view local times or setup timezone preferences in your user account.

Time Position Orientation Groundspeed Altitude Reporting Facility
EDT Latitude Longitude Course Direction KTS MPH feet Rate Location/Type
08:26AM 48.9981 2.6007 62° Northeast 105 121 400  Level FlightAware ADS-B
08:26AM 48.9990 2.6203 86° East 191 220 900 2,280 Climbing FlightAware ADS-B
08:26AM 48.9999 2.6427 86° East 191 220 1,600 2,880 Climbing FlightAware ADS-B
08:27AM 49.0005 2.6571 86° East 188 216 2,200 2,400 Climbing FlightAware ADS-B
08:27AM 49.0019 2.6783 84° East 189 217 2,700 2,040 Climbing FlightAware ADS-B
08:27AM 49.0031 2.6990 85° East 190 219 3,300 1,920 Climbing FlightAware ADS-B
08:27AM 49.0043 2.7194 85° East 198 228 3,700 1,140 Climbing FlightAware ADS-B
08:28AM 49.0056 2.7425 85° East 222 255 3,900 900 Climbing FlightAware ADS-B
08:28AM 49.0072 2.7698 85° East 241 277 4,200 1,620 Climbing FlightAware ADS-B
08:28AM 49.0084 2.7915 85° East 246 283 4,700 2,160 Climbing FlightAware ADS-B
08:28AM 49.0082 2.8018 92° East 250 288 4,900 1,800 Climbing FlightAware ADS-B
08:28AM 49.0077 2.8083 97° East 256 295 5,000 1,560 Climbing FlightAware ADS-B
08:29AM 49.0048 2.8291 102° East 266 306 5,300 1,980 Climbing FlightAware ADS-B
08:29AM 49.0025 2.8408 107° East 265 305 5,600 3,240 Climbing FlightAware ADS-B
08:29AM 49.0006 2.8486 110° East 261 300 5,900 3,780 Climbing FlightAware ADS-B
08:29AM 48.9966 2.8602 118° Southeast 260 299 6,300 2,760 Climbing FlightAware ADS-B
08:29AM 48.9925 2.8689 126° Southeast 263 303 6,500 1,800 Climbing FlightAware ADS-B
08:29AM 48.9890 2.8747 133° Southeast 266 306 6,600 1,380 Climbing FlightAware ADS-B
08:29AM 48.9762 2.8867 148° Southeast 270 311 6,900 2,580 Climbing FlightAware ADS-B
08:30AM 48.9461 2.8843 183° South 271 312 8,200 3,000 Climbing FlightAware ADS-B
08:30AM 48.9414 2.8812 203° Southwest 273 314 8,300 1,680 Climbing FlightAware ADS-B
08:30AM 48.9302 2.8699 214° Southwest 282 325 8,600 1,980 Climbing FlightAware ADS-B
08:30AM 48.9258 2.8624 228° Southwest 284 327 8,800 2,400 Climbing FlightAware ADS-B
08:30AM 48.9220 2.8540 236° Southwest 287 330 9,000 2,520 Climbing FlightAware ADS-B
08:30AM 48.9129 2.8296 240° Southwest 286 329 9,600 2,700 Climbing FlightAware ADS-B
08:30AM 48.9081 2.8169 240° Southwest 286 329 10,000 1,680 Climbing FlightAware ADS-B
08:31AM 48.8864 2.7634 238° Southwest 311 358 10,700 1,620 Climbing FlightAware ADS-B
08:31AM 48.8616 2.7031 238° Southwest 332 382 11,700 2,220 Climbing FlightAware ADS-B
08:32AM 48.8366 2.6424 238° Southwest 343 395 13,000 2,520 Climbing FlightAware ADS-B
08:32AM 48.8102 2.5788 238° Southwest 352 405 14,300 2,100 Climbing FlightAware ADS-B
08:33AM 48.7806 2.5078 238° Southwest 375 432 15,300 1,500 Climbing FlightAware ADS-B
08:34AM 48.7447 2.4228 237° Southwest 406 467 16,100 1,380 Climbing FlightAware ADS-B
08:34AM 48.7341 2.4030 231° Southwest 410 472 16,400 2,040 Climbing FlightAware ADS-B
08:34AM 48.7053 2.3650 221° Southwest 414 476 17,100 2,160 Climbing FlightAware ADS-B
08:34AM 48.6748 2.3373 211° Southwest 416 479 17,800 2,220 Climbing FlightAware ADS-B
08:35AM 48.6604 2.3285 202° Southwest 417 480 18,100 1,980 Climbing FlightAware ADS-B
08:35AM 48.6426 2.3211 195° South 417 480 18,400 1,860 Climbing FlightAware ADS-B
08:35AM 48.6299 2.3178 190° South 418 481 18,600 1,800 Climbing FlightAware ADS-B
08:35AM 48.5991 2.3170 181° South 420 483 19,100 2,040 Climbing FlightAware ADS-B
08:36AM 48.5340 2.3294 173° South 424 488 20,300 2,160 Climbing FlightAware ADS-B
08:36AM 48.4746 2.3417 172° South 433 498 21,400 2,100 Climbing FlightAware ADS-B
08:37AM 48.4118 2.3545 172° South 439 505 22,500 1,860 Climbing FlightAware ADS-B
08:37AM 48.3402 2.3685 173° South 450 518 23,500 1,620 Climbing FlightAware ADS-B
08:38AM 48.2740 2.3810 173° South 461 531 24,300 1,500 Climbing FlightAware ADS-B
08:38AM 48.1831 2.3981 173° South 471 542 25,400 1,800 Climbing FlightAware ADS-B
08:39AM 48.1027 2.4134 173° South 471 542 26,700 1,440 Climbing FlightAware ADS-B
08:40AM 47.9650 2.4400 173° South 495 570 27,900 900 Climbing FlightAware
08:41AM 47.8690 2.4590 172° South 512 589 28,400 1,380 Climbing FlightAware
08:42AM 47.7545 2.4824 172° South 514 592 29,900 1,740 Climbing FlightAware ADS-B
08:42AM 47.6528 2.5026 172° South 511 588 31,000 1,740 Climbing FlightAware ADS-B
08:43AM 47.5740 2.5181 172° South 511 588 32,200 1,800 Climbing FlightAware ADS-B
08:43AM 47.5018 2.5321 172° South 511 588 33,000 600 Climbing FlightAware ADS-B
08:44AM 47.3952 2.5527 173° South 497 572 33,000  Level FlightAware ADS-B
08:45AM 47.2820 2.5750 172° South 502 578 33,000  Level FlightAware
08:46AM 47.1850 2.5940 172° South 506 582 33,000  Level FlightAware
08:46AM 47.0950 2.6110 173° South 506 582 33,000  Level FlightAware
08:47AM 46.9880 2.6320 172° South 504 580 33,000  Level FlightAware
08:48AM 46.8940 2.6500 173° South 500 575 33,000  Level FlightAware
08:49AM 46.8060 2.6660 173° South 499 574 33,000  Level FlightAware
08:49AM 46.7000 2.6870 172° South 497 572 33,000  Level FlightAware
08:50AM 46.6110 2.7030 173° South 496 571 33,000  Level FlightAware
08:51AM 46.5140 2.7220 172° South 497 572 33,000  Level FlightAware
08:51AM 46.4240 2.7390 173° South 498 573 33,000  Level FlightAware
08:52AM 46.3280 2.7570 173° South 498 573 33,000  Level FlightAware
08:53AM 46.2260 2.7760 173° South 498 573 33,000  Level FlightAware
08:53AM 46.1360 2.7930 173° South 497 572 33,000  Level FlightAware
08:54AM 46.0290 2.8120 173° South 496 571 33,000  Level FlightAware
08:55AM 45.9270 2.8190 177° South 495 570 33,000  Level FlightAware
08:56AM 45.8370 2.8210 179° South 494 568 33,000  Level FlightAware
08:56AM 45.7410 2.8220 180° South 494 568 33,000  Level FlightAware
08:57AM 45.6490 2.8240 179° South 497 572 33,000  Level FlightAware
08:58AM 45.5490 2.8250 180° South 498 573 33,000  Level FlightAware
08:58AM 45.4470 2.8270 179° South 500 575 33,000  Level FlightAware
08:59AM 45.3520 2.8280 180° South 499 574 33,000  Level FlightAware
09:00AM 45.2590 2.8300 179° South 501 577 33,000  Level FlightAware
09:01AM 45.1610 2.8310 180° South 502 578 33,000  Level FlightAware
09:01AM 45.0670 2.8330 179° South 503 579 33,000  Level FlightAware
09:02AM 44.9710 2.8340 180° South 505 581 33,000  Level FlightAware
09:03AM 44.8660 2.8360 179° South 506 582 33,000  Level FlightAware
09:03AM 44.7720 2.8370 180° South 506 582 33,000  Level FlightAware
09:04AM 44.6770 2.8390 179° South 507 583 33,000  Level FlightAware
09:05AM 44.5730 2.8400 180° South 507 583 33,000  Level FlightAware
09:05AM 44.4800 2.8420 179° South 507 583 33,000  Level FlightAware
09:06AM 44.3730 2.8430 180° South 507 583 33,000  Level FlightAware
09:07AM 44.2790 2.8450 179° South 507 583 33,000  Level FlightAware
09:07AM 44.2000 2.8460 179° South 507 583 33,000  Level FlightAware
09:08AM 44.0820 2.8480 179° South 508 585 33,000  Level FlightAware
09:09AM 43.9740 2.8490 180° South 510 587 33,000  Level FlightAware
09:10AM 43.8780 2.8510 179° South 512 589 33,000  Level FlightAware
09:10AM 43.7860 2.8520 180° South 512 589 33,000  Level FlightAware
09:11AM 43.6770 2.8540 179° South 513 590 33,000  Level FlightAware
09:12AM 43.5810 2.8550 180° South 513 590 33,000  Level FlightAware
09:12AM 43.4870 2.8560 180° South 514 592 33,000  Level FlightAware
09:13AM 43.3810 2.8580 179° South 514 592 33,000  Level FlightAware
09:14AM 43.2870 2.8590 180° South 515 593 33,000  Level FlightAware
09:15AM 43.1760 2.8610 179° South 517 595 33,000  Level FlightAware
09:15AM 43.0830 2.8620 180° South 517 595 33,000  Level FlightAware
09:16AM 42.9760 2.8640 179° South 518 596 33,000  Level FlightAware
09:17AM 42.8790 2.8650 180° South 517 595 33,000  Level FlightAware
09:17AM 42.7850 2.8680 179° South 517 595 33,000  Level FlightAware
09:18AM 42.6790 2.8980 168° South 523 602 33,000  Level FlightAware
09:19AM 42.5860 2.9380 162° South 524 603 33,000  Level FlightAware
09:19AM 42.4850 2.9810 163° South 524 603 33,000  Level FlightAware
09:20AM 42.3940 3.0200 162° South 525 604 33,000  Level FlightAware
09:21AM 42.2910 3.0640 162° South 528 608 33,000  Level FlightAware
09:22AM 42.1930 3.1050 163° South 529 609 33,000  Level FlightAware
09:22AM 42.1080 3.1410 163° South 527 606 33,000  Level FlightAware
09:23AM 41.9960 3.1880 163° South 525 604 33,000  Level FlightAware
09:24AM 41.9160 3.2050 171° South 519 597 33,000  Level FlightAware
09:24AM 41.7960 3.2020 181° South 517 595 33,000  Level FlightAware
09:25AM 41.6960 3.1970 182° South 517 595 33,000  Level FlightAware
09:26AM 41.6060 3.1920 182° South 517 595 33,000  Level FlightAware
09:26AM 41.4890 3.1870 182° South 519 597 33,000  Level FlightAware
09:27AM 41.3950 3.1820 182° South 520 598 33,000  Level FlightAware
09:28AM 41.2970 3.1780 182° South 521 600 33,000  Level FlightAware
09:29AM 41.1920 3.1730 182° South 521 600 33,000  Level FlightAware
09:29AM 41.0950 3.1680 182° South 520 598 33,000  Level FlightAware
09:30AM 40.9830 3.1630 182° South 519 597 33,000  Level FlightAware
09:31AM 40.8900 3.1590 182° South 519 597 33,000  Level FlightAware
09:31AM 40.7830 3.1540 182° South 519 597 33,000  Level FlightAware
09:32AM 40.6860 3.1490 182° South 519 597 33,000  Level FlightAware
09:33AM 40.5910 3.1450 182° South 521 600 33,000  Level FlightAware
09:33AM 40.4840 3.1400 182° South 522 601 33,000  Level FlightAware
09:34AM 40.3840 3.1350 182° South 522 601 33,000  Level FlightAware
09:35AM 40.2860 3.1310 182° South 523 602 33,000  Level FlightAware
09:36AM 40.1790 3.1260 182° South 524 603 33,000  Level FlightAware
09:36AM 40.0800 3.1210 182° South 525 604 33,000  Level FlightAware
09:37AM 39.9720 3.1150 182° South 521 600 33,000  Level FlightAware
09:38AM 39.8860 3.0830 196° South 505 581 33,000  Level FlightAware
09:38AM 39.8170 3.0340 209° Southwest 502 578 33,000  Level FlightAware
09:39AM 39.7160 2.9610 209° Southwest 505 581 33,000  Level FlightAware
09:40AM 39.6280 2.8970 209° Southwest 509 586 33,000  Level FlightAware
09:40AM 39.5580 2.8470 209° Southwest 510 587 33,000  Level FlightAware
09:41AM 39.4520 2.7730 208° Southwest 511 588 33,000  Level FlightAware
09:42AM 39.3590 2.7370 197° South 524 603 33,000  Level FlightAware
09:43AM 39.2490 2.7080 192° South 527 606 33,000  Level FlightAware
09:43AM 39.1540 2.6830 192° South 528 608 33,000  Level FlightAware
09:44AM 39.0420 2.6530 192° South 538 619 33,000  Level FlightAware
09:45AM 38.9450 2.6280 191° South 539 620 33,000  Level FlightAware
09:45AM 38.8370 2.5990 192° South 540 621 33,000  Level FlightAware
09:46AM 38.7380 2.5720 192° South 540 621 33,000  Level FlightAware
09:47AM 38.6380 2.5460 191° South 541 623 33,000  Level FlightAware
09:47AM 38.5300 2.5180 191° South 542 624 33,000  Level FlightAware
09:48AM 38.4310 2.4920 192° South 543 625 33,000  Level FlightAware
09:49AM 38.3350 2.4660 192° South 544 626 33,000  Level FlightAware
09:50AM 38.2230 2.4370 191° South 544 626 33,000  Level FlightAware
09:50AM 38.1250 2.4120 191° South 33,000  Level FlightAware
09:51AM 38.0450 2.3920 191° South 545 627 33,000  Level FlightAware
09:52AM 37.8760 2.3350 195° South 534 615 33,000  Level FlightAware
09:53AM 37.7820 2.3050 194° South 534 615 33,000  Level FlightAware
09:53AM 37.6710 2.2690 194° South 534 615 33,000  Level FlightAware
09:54AM 37.5670 2.2360 194° South 534 615 33,000  Level FlightAware
09:55AM 37.4810 2.2100 193° South 533 613 33,000  Level FlightAware
09:55AM 37.3730 2.1760 194° South 534 615 33,000  Level FlightAware
09:56AM 37.2480 2.1370 194° South 534 615 33,000  Level FlightAware
09:57AM 37.1660 2.1110 194° South 534 615 33,000  Level FlightAware
09:58AM 37.0850 2.0860 194° South 534 615 33,000  Level FlightAware
09:58AM 36.9830 2.0540 194° South 534 615 33,000  Level FlightAware
09:59AM 36.9010 2.0280 194° South 534 615 33,000  Level FlightAware
10:00AM 36.8200 2.0030 194° South 534 615 33,000  Level FlightAware
10:00AM 36.7380 1.9780 194° South 534 615 33,000  Level FlightAware
10:01AM 36.6370 1.9460 194° South 534 615 33,000  Level FlightAware
10:02AM 36.5550 1.9210 194° South 534 615 33,000  Level FlightAware
10:03AM 36.4740 1.8950 194° South 534 615 33,000  Level FlightAware
10:03AM 36.3920 1.8700 194° South 534 615 33,000  Level FlightAware
10:04AM 36.3110 1.8450 194° South 534 615 33,000  Level FlightAware
10:05AM 36.2290 1.8200 194° South 534 615 33,000  Level FlightAware
10:05AM 36.1270 1.7880 194° South 534 615 33,000  Level FlightAware
10:08AM 35.8675 1.7258 191° South  Level Estimated
10:09AM 35.7409 1.6956 191° South  Level Estimated
10:10AM 35.6143 1.6654 191° South  Level Estimated
10:11AM 35.4877 1.6354 191° South  Level Estimated
10:12AM 35.3611 1.6055 191° South  Level Estimated
10:13AM 35.2345 1.5757 191° South  Level Estimated
10:14AM 35.1079 1.5459 191° South  Level Estimated
10:15AM 34.9813 1.5163 191° South  Level Estimated
10:16AM 34.8546 1.4868 191° South  Level Estimated
10:17AM 34.7280 1.4573 191° South  Level Estimated
10:18AM 34.6013 1.4279 191° South  Level Estimated
10:19AM 34.4747 1.3986 191° South  Level Estimated
10:20AM 34.3480 1.3694 191° South  Level Estimated
10:21AM 34.2213 1.3403 191° South  Level Estimated
10:22AM 34.0947 1.3113 191° South  Level Estimated
10:23AM 33.9680 1.2824 191° South  Level Estimated
10:24AM 33.8413 1.2535 191° South  Level Estimated
10:25AM 33.7146 1.2248 191° South  Level Estimated
10:26AM 33.5879 1.1961 191° South  Level Estimated
10:27AM 33.4612 1.1675 191° South  Level Estimated
10:28AM 33.3344 1.1390 191° South  Level Estimated
10:29AM 33.2077 1.1106 191° South  Level Estimated
10:30AM 33.0810 1.0822 191° South  Level Estimated
10:31AM 32.9542 1.0540 191° South  Level Estimated
10:32AM 32.8275 1.0258 191° South  Level Estimated
10:33AM 32.7007 0.9977 191° South  Level Estimated
10:34AM 32.5740 0.9697 191° South  Level Estimated
10:35AM 32.4472 0.9417 191° South  Level Estimated
10:36AM 32.3204 0.9139 191° South  Level Estimated
10:37AM 32.1937 0.8861 191° South  Level Estimated
10:38AM 32.0669 0.8584 190° South  Level Estimated
10:39AM 31.9401 0.8308 190° South  Level Estimated
10:40AM 31.8133 0.8032 190° South  Level Estimated
10:41AM 31.6865 0.7757 190° South  Level Estimated
10:42AM 31.5597 0.7483 190° South  Level Estimated
10:43AM 31.4329 0.7210 190° South  Level Estimated
10:44AM 31.3061 0.6937 190° South  Level Estimated
10:45AM 31.1792 0.6666 190° South  Level Estimated
10:46AM 31.0524 0.6395 190° South  Level Estimated
10:47AM 30.9256 0.6124 190° South  Level Estimated
10:48AM 30.7987 0.5854 190° South  Level Estimated
10:49AM 30.6719 0.5585 190° South  Level Estimated
10:50AM 30.5450 0.5317 190° South  Level Estimated
10:51AM 30.4182 0.5050 190° South  Level Estimated
10:52AM 30.2913 0.4783 190° South  Level Estimated
10:53AM 30.1644 0.4517 190° South  Level Estimated
10:54AM 30.0376 0.4251 190° South  Level Estimated
10:55AM 29.9107 0.3986 190° South  Level Estimated
10:56AM 29.7838 0.3722 190° South  Level Estimated
10:57AM 29.6569 0.3459 190° South  Level Estimated
10:58AM 29.5300 0.3196 190° South  Level Estimated
10:59AM 29.4031 0.2934 190° South  Level Estimated
11:00AM 29.2762 0.2672 190° South  Level Estimated
11:01AM 29.1493 0.2412 190° South  Level Estimated
11:02AM 29.0224 0.2151 190° South  Level Estimated
11:03AM 28.8955 0.1892 190° South  Level Estimated
11:04AM 28.7686 0.1633 190° South  Level Estimated
11:05AM 28.6416 0.1375 190° South  Level Estimated
11:06AM 28.5147 0.1117 190° South  Level Estimated
11:07AM 28.3878 0.0860 190° South  Level Estimated
11:08AM 28.2608 0.0604 190° South  Level Estimated
11:09AM 28.1339 0.0348 190° South  Level Estimated
11:10AM 28.0069 0.0093 190° South  Level Estimated
11:11AM 27.8800 -0.0162 190° South  Level Estimated
11:12AM 27.7530 -0.0416 190° South  Level Estimated
11:13AM 27.6261 -0.0670 190° South  Level Estimated
11:14AM 27.4991 -0.0922 190° South  Level Estimated
11:15AM 27.3721 -0.1175 190° South  Level Estimated
11:16AM 27.2451 -0.1426 190° South  Level Estimated
11:17AM 27.1181 -0.1677 190° South  Level Estimated
11:18AM 26.9911 -0.1928 190° South  Level Estimated
11:19AM 26.8641 -0.2178 190° South  Level Estimated
11:20AM 26.7372 -0.2427 190° South  Level Estimated
11:21AM 26.6101 -0.2676 190° South  Level Estimated
11:22AM 26.4831 -0.2924 190° South  Level Estimated
11:23AM 26.3561 -0.3172 190° South  Level Estimated
11:24AM 26.2291 -0.3419 190° South  Level Estimated
11:25AM 26.1021 -0.3666 190° South  Level Estimated
11:26AM 25.9751 -0.3912 190° South  Level Estimated
11:27AM 25.8480 -0.4158 190° South  Level Estimated
11:28AM 25.7210 -0.4403 190° South  Level Estimated
11:29AM 25.5940 -0.4647 190° South  Level Estimated
11:30AM 25.4669 -0.4891 190° South  Level Estimated
11:31AM 25.3399 -0.5135 190° South  Level Estimated
11:32AM 25.2128 -0.5378 190° South  Level Estimated
11:33AM 25.0858 -0.5620 190° South  Level Estimated
11:34AM 24.9587 -0.5863 190° South  Level Estimated
11:35AM 24.8317 -0.6104 190° South  Level Estimated
11:36AM 24.7046 -0.6345 190° South  Level Estimated
11:37AM 24.5775 -0.6586 190° South  Level Estimated
11:38AM 24.4505 -0.6826 190° South  Level Estimated
11:39AM 24.3234 -0.7065 190° South  Level Estimated
11:40AM 24.1963 -0.7304 190° South  Level Estimated
11:41AM 24.0692 -0.7543 190° South  Level Estimated
11:42AM 23.9421 -0.7781 190° South  Level Estimated
11:43AM 23.8150 -0.8018 190° South  Level Estimated
11:44AM 23.6880 -0.8256 190° South  Level Estimated
11:45AM 23.5609 -0.8492 190° South  Level Estimated
11:46AM 23.4338 -0.8729 190° South  Level Estimated
11:47AM 23.3066 -0.8964 190° South  Level Estimated
11:48AM 23.1795 -0.9200 190° South  Level Estimated
11:49AM 23.0524 -0.9435 190° South  Level Estimated
11:50AM 22.9253 -0.9669 190° South  Level Estimated
11:51AM 22.7982 -0.9903 190° South  Level Estimated
11:52AM 22.6711 -1.0137 190° South  Level Estimated
11:53AM 22.5439 -1.0370 190° South  Level Estimated
11:54AM 22.4145 -1.0607 190° South  Level Estimated
11:55AM 22.2851 -1.0843 190° South  Level Estimated
11:56AM 22.1557 -1.1079 190° South  Level Estimated
11:57AM 22.0263 -1.1315 190° South  Level Estimated
11:58AM 21.8969 -1.1550 190° South  Level Estimated
11:59AM 21.7675 -1.1785 190° South  Level Estimated
12:00PM 21.6381 -1.2019 190° South  Level Estimated
12:01PM 21.5086 -1.2253 190° South  Level Estimated
12:02PM 21.3792 -1.2486 190° South  Level Estimated
12:03PM 21.2498 -1.2719 190° South  Level Estimated
12:04PM 21.1203 -1.2952 190° South  Level Estimated
12:05PM 20.9909 -1.3184 190° South  Level Estimated
12:06PM 20.8615 -1.3416 190° South  Level Estimated
12:07PM 20.7320 -1.3647 189° South  Level Estimated
12:08PM 20.6026 -1.3878 189° South  Level Estimated
12:09PM 20.4731 -1.4109 189° South  Level Estimated
12:10PM 20.3437 -1.4339 189° South  Level Estimated
12:11PM 20.2142 -1.4569 189° South  Level Estimated
12:12PM 20.0848 -1.4799 189° South  Level Estimated
12:13PM 19.9553 -1.5028 189° South  Level Estimated
12:14PM 19.8258 -1.5256 189° South  Level Estimated
12:15PM 19.6964 -1.5485 189° South  Level Estimated
12:16PM 19.5669 -1.5713 189° South  Level Estimated
12:17PM 19.4374 -1.5940 189° South  Level Estimated
12:18PM 19.3080 -1.6168 189° South  Level Estimated
12:19PM 19.1785 -1.6395 189° South  Level Estimated
12:20PM 19.0490 -1.6621 189° South  Level Estimated
12:21PM 18.9195 -1.6847 189° South  Level Estimated
12:22PM 18.7900 -1.7073 189° South  Level Estimated
12:23PM 18.6605 -1.7299 189° South  Level Estimated
12:24PM 18.5311 -1.7524 189° South  Level Estimated
12:25PM 18.4016 -1.7749 189° South  Level Estimated
12:26PM 18.2721 -1.7973 189° South  Level Estimated
12:27PM 18.1426 -1.8197 189° South  Level Estimated
12:28PM 18.0131 -1.8421 189° South  Level Estimated
12:29PM 17.8836 -1.8644 189° South  Level Estimated
12:30PM 17.7541 -1.8867 189° South  Level Estimated
12:31PM 17.6245 -1.9090 189° South  Level Estimated
12:32PM 17.4950 -1.9313 189° South  Level Estimated
12:33PM 17.3655 -1.9535 189° South  Level Estimated
12:34PM 17.2360 -1.9757 189° South  Level Estimated
12:35PM 17.1065 -1.9978 189° South  Level Estimated
12:36PM 16.9770 -2.0200 189° South  Level Estimated
12:37PM 16.8475 -2.0421 189° South  Level Estimated
12:38PM 16.7179 -2.0641 189° South  Level Estimated
12:39PM 16.5884 -2.0862 189° South  Level Estimated
12:40PM 16.4589 -2.1082 189° South  Level Estimated
12:41PM 16.3293 -2.1302 189° South  Level Estimated
12:42PM 16.1998 -2.1521 189° South  Level Estimated
12:43PM 16.0702 -2.1740 189° South  Level Estimated
12:44PM 15.9407 -2.1959 189° South  Level Estimated
12:45PM 15.8112 -2.2178 189° South  Level Estimated
12:46PM 15.6816 -2.2396 189° South  Level Estimated
12:47PM 15.5521 -2.2614 189° South  Level Estimated
12:48PM 15.4225 -2.2832 189° South  Level Estimated
12:49PM 15.2930 -2.3049 189° South  Level Estimated
12:50PM 15.1634 -2.3267 189° South  Level Estimated
12:51PM 15.0339 -2.3484 189° South  Level Estimated
12:52PM 14.9043 -2.3700 189° South  Level Estimated
12:53PM 14.7747 -2.3917 189° South  Level Estimated
12:54PM 14.6452 -2.4133 189° South  Level Estimated
12:55PM 14.5156 -2.4349 189° South  Level Estimated
12:56PM 14.3861 -2.4564 189° South  Level Estimated
12:57PM 14.2565 -2.4780 189° South  Level Estimated
12:58PM 14.1269 -2.4995 189° South  Level Estimated
12:59PM 13.9973 -2.5210 189° South  Level Estimated
01:00PM 13.8678 -2.5425 189° South  Level Estimated
01:01PM 13.7382 -2.5639 189° South  Level Estimated
01:02PM 13.6086 -2.5853 189° South  Level Estimated
01:03PM 13.4790 -2.6067 189° South  Level Estimated
01:04PM 13.3495 -2.6281 189° South  Level Estimated
01:05PM 13.2199 -2.6495 189° South  Level Estimated
01:06PM 13.0903 -2.6708 189° South  Level Estimated
01:07PM 12.9607 -2.6921 189° South  Level Estimated
01:08PM 12.8311 -2.7134 189° South  Level Estimated
01:09PM 12.7015 -2.7347 189° South  Level Estimated
01:10PM 12.5719 -2.7559 189° South  Level Estimated
01:11PM 12.4424 -2.7771 189° South  Level Estimated
01:12PM 12.3128 -2.7983 189° South  Level Estimated
01:13PM 12.1832 -2.8195 189° South  Level Estimated
01:14PM 12.0536 -2.8407 189° South  Level Estimated
01:15PM 11.9240 -2.8618 189° South  Level Estimated
01:16PM 11.7944 -2.8829 189° South  Level Estimated
01:17PM 11.6648 -2.9040 189° South  Level Estimated
01:18PM 11.5352 -2.9251 189° South  Level Estimated
01:19PM 11.4056 -2.9462 189° South  Level Estimated
01:20PM 11.2760 -2.9672 189° South  Level Estimated
01:21PM 11.1463 -2.9882 189° South  Level Estimated
01:22PM 11.0167 -3.0092 189° South  Level Estimated
01:23PM 10.8871 -3.0302 189° South  Level Estimated
01:24PM 10.7590 -3.0509 189° South  Level Estimated
01:25PM 10.6309 -3.0716 189° South  Level Estimated
01:26PM 10.5028 -3.0923 189° South  Level Estimated
01:27PM 10.3748 -3.1130 189° South  Level Estimated
01:28PM 10.2467 -3.1336 189° South  Level Estimated
01:29PM 10.1186 -3.1542 189° South  Level Estimated
01:30PM 9.9905 -3.1749 189° South  Level Estimated
01:31PM 9.8624 -3.1955 189° South  Level Estimated
01:32PM 9.7343 -3.2160 189° South  Level Estimated
01:33PM 9.6062 -3.2366 189° South  Level Estimated
01:34PM 9.4781 -3.2572 189° South  Level Estimated
01:35PM 9.3500 -3.2777 189° South  Level Estimated
01:36PM 9.2219 -3.2982 189° South  Level Estimated
01:37PM 9.0938 -3.3187 189° South  Level Estimated
01:38PM 8.9657 -3.3392 189° South  Level Estimated
01:39PM 8.8376 -3.3597 189° South  Level Estimated
01:40PM 8.7094 -3.3802 189° South  Level Estimated
01:41PM 8.5813 -3.4006 189° South  Level Estimated
01:42PM 8.4532 -3.4210 189° South  Level Estimated
01:43PM 8.3251 -3.4415 189° South  Level Estimated
01:44PM 8.1970 -3.4619 189° South  Level Estimated
01:45PM 8.0689 -3.4823 189° South  Level Estimated
01:46PM 7.9408 -3.5026 189° South  Level Estimated
01:47PM 7.8127 -3.5230 189° South  Level Estimated
01:48PM 7.6846 -3.5434 189° South  Level Estimated
01:49PM 7.5564 -3.5637 189° South  Level Estimated
01:50PM 7.4283 -3.5840 189° South  Level Estimated
01:51PM 7.3002 -3.6044 189° South  Level Estimated
01:52PM 7.1721 -3.6247 189° South  Level Estimated
01:53PM 7.0440 -3.6450 189° South  Level Estimated
01:54PM 6.9158 -3.6653 189° South  Level Estimated
01:55PM 6.7877 -3.6855 189° South  Level Estimated
01:56PM 6.6596 -3.7058 189° South  Level Estimated
01:57PM 6.5315 -3.7260 189° South  Level Estimated
01:58PM 6.4034 -3.7463 189° South  Level Estimated
01:59PM 6.2752 -3.7665 189° South  Level Estimated
02:00PM 6.1471 -3.7867 189° South  Level Estimated
02:01PM 6.0190 -3.8070 189° South  Level Estimated
02:02PM 5.8908 -3.8272 189° South  Level Estimated
02:03PM 5.7627 -3.8474 189° South  Level Estimated
02:04PM 5.6346 -3.8675 189° South  Level Estimated
02:05PM 5.5065 -3.8877 189° South  Level Estimated
02:06PM 5.3809 -3.9075 189° South  Level Estimated
02:07PM 5.2614 -3.9263 189° South  Level Estimated
02:08PM 5.2614 -3.9263 225° Southwest  Level Estimated
02:09PM 5.2614 -3.9263 225° Southwest  Level Estimated
02:10PM 5.2614 -3.9263 225° Southwest  Level Estimated
02:11PM 5.2614 -3.9263 225° Southwest  Level Estimated
02:12PM 5.2614 -3.9263 225° Southwest  Level Estimated
02:13PM 5.2614 -3.9263 225° Southwest  Level Estimated